Time;durP1;ratioP1;P1;durP2;ratioP2;P2;SDS_P1;SDS_P2;PMS_P1;PMS_P2;Temp;Humidity;BMP_temperature;BMP_pressure;BME280_temperature;BME280_humidity;BME280_pressure;Samples;Min_cycle;Max_cycle;Signal;HPM_P1;HPM_P2
2024/01/25 00:00:47;;;;;;;13.57;2.15;;;;;;;10.87;58.46;101442.19;10265200;28;20498;-61
2024/01/25 00:05:49;;;;;;;17.42;1.50;;;;;;;10.75;58.51;101422.72;10274974;28;20061;-61
2024/01/25 00:10:51;;;;;;;18.48;1.60;;;;;;;10.76;58.30;101434.31;10265939;28;20051;-61
2024/01/25 00:15:52;;;;;;;20.17;1.83;;;;;;;10.77;58.20;101415.34;10267102;28;20404;-61
2024/01/25 00:20:54;;;;;;;22.85;1.77;;;;;;;10.78;58.67;101419.75;10262792;28;20097;-61
2024/01/25 00:25:58;;;;;;;22.00;2.00;;;;;;;10.78;58.55;101430.50;10264704;28;20047;-61
2024/01/25 00:30:59;;;;;;;18.67;2.30;;;;;;;10.85;58.36;101442.34;10264849;28;20054;-60
2024/01/25 00:36:01;;;;;;;13.63;2.90;;;;;;;10.96;57.97;101435.03;10267408;28;20059;-61
2024/01/25 00:41:08;;;;;;;19.80;2.50;;;;;;;10.95;58.62;101427.97;10268655;28;20404;-60
2024/01/25 00:46:09;;;;;;;9.47;1.30;;;;;;;11.04;57.88;101427.09;10268677;28;20054;-60
2024/01/25 00:51:16;;;;;;;12.43;1.23;;;;;;;11.04;58.08;101422.53;10271544;28;20048;-60
2024/01/25 00:56:17;;;;;;;19.48;3.38;;;;;;;11.05;58.51;101436.81;10267656;28;20059;-61
2024/01/25 01:01:22;;;;;;;16.90;2.65;;;;;;;11.09;58.34;101447.13;10267491;28;20146;-60
2024/01/25 01:06:24;;;;;;;13.50;2.30;;;;;;;11.15;58.15;101451.06;10265442;28;20863;-60
2024/01/25 01:11:26;;;;;;;22.55;2.45;;;;;;;11.10;58.66;101454.22;10265558;28;20051;-60
2024/01/25 01:16:28;;;;;;;17.15;2.67;;;;;;;11.09;58.66;101459.75;10272979;28;20043;-60
2024/01/25 01:21:30;;;;;;;15.68;1.52;;;;;;;11.11;58.77;101461.28;10269873;28;20050;-61
2024/01/25 01:26:31;;;;;;;14.98;3.38;;;;;;;11.14;58.76;101464.66;10269365;28;20046;-60
2024/01/25 01:31:33;;;;;;;13.63;1.75;;;;;;;11.07;58.40;101448.28;10271997;28;20821;-61
2024/01/25 01:36:34;;;;;;;19.58;2.45;;;;;;;11.08;58.65;101450.00;10269205;28;20061;-61
2024/01/25 01:41:36;;;;;;;18.63;1.90;;;;;;;11.04;58.95;101444.06;10269326;28;20070;-61
2024/01/25 01:46:39;;;;;;;14.43;2.28;;;;;;;11.02;58.64;101438.00;10270183;28;20066;-61
2024/01/25 01:51:44;;;;;;;14.60;1.85;;;;;;;11.02;58.67;101450.56;10272843;28;20130;-61
2024/01/25 01:56:46;;;;;;;18.05;2.50;;;;;;;10.98;58.67;101447.38;10266380;28;20054;-61
2024/01/25 02:01:47;;;;;;;20.70;2.65;;;;;;;10.89;59.14;101448.25;10272957;28;20146;-61
2024/01/25 02:06:49;;;;;;;18.45;1.65;;;;;;;10.82;59.56;101453.41;10276830;28;20138;-61
2024/01/25 02:12:04;;;;;;;12.93;1.40;;;;;;;10.79;59.45;101460.94;10271342;28;20050;-61
2024/01/25 02:17:06;;;;;;;19.92;1.88;;;;;;;10.76;59.46;101453.16;10269710;28;20073;-61
2024/01/25 02:22:08;;;;;;;18.45;2.60;;;;;;;10.66;59.69;101456.75;10271824;28;20578;-61
2024/01/25 02:27:09;;;;;;;24.38;2.40;;;;;;;10.63;59.96;101456.19;10270390;28;20052;-61
2024/01/25 02:32:11;;;;;;;16.83;3.17;;;;;;;10.58;59.95;101461.16;10269938;28;20051;-62
2024/01/25 02:37:14;;;;;;;22.10;3.05;;;;;;;10.50;60.39;101467.28;10271015;28;20073;-61
2024/01/25 02:42:16;;;;;;;23.75;2.08;;;;;;;10.52;60.30;101462.59;10270050;28;20458;-61
2024/01/25 02:47:18;;;;;;;16.45;2.38;;;;;;;10.51;60.16;101472.50;10267396;28;20142;-60
2024/01/25 02:52:20;;;;;;;9.50;1.80;;;;;;;10.56;60.54;101468.53;10272329;28;20137;-60
2024/01/25 02:57:21;;;;;;;16.38;1.70;;;;;;;10.52;60.53;101463.47;10269445;28;20219;-61
2024/01/25 03:02:23;;;;;;;11.88;1.15;;;;;;;10.51;60.17;101456.38;10264423;28;20053;-61
2024/01/25 03:07:24;;;;;;;11.93;2.17;;;;;;;10.48;60.40;101469.25;10270496;28;20050;-61
2024/01/25 03:12:26;;;;;;;23.23;2.67;;;;;;;10.37;60.67;101470.31;10265617;28;20042;-61
2024/01/25 03:17:27;;;;;;;14.68;1.92;;;;;;;10.31;60.54;101490.56;10264572;28;20114;-61
2024/01/25 03:22:35;;;;;;;17.17;1.50;;;;;;;10.30;60.93;101498.75;10263504;28;20043;-61
2024/01/25 03:27:36;;;;;;;19.38;2.28;;;;;;;10.25;61.08;101509.09;10263955;28;20051;-60
2024/01/25 03:32:37;;;;;;;9.93;1.30;;;;;;;10.24;60.60;101510.91;10266095;28;20105;-60
2024/01/25 03:37:39;;;;;;;17.20;2.40;;;;;;;10.28;60.58;101520.38;10266495;28;20043;-61
2024/01/25 03:42:40;;;;;;;19.00;2.08;;;;;;;10.31;60.97;101527.34;10271165;28;20042;-61
2024/01/25 03:47:45;;;;;;;16.58;2.60;;;;;;;10.30;60.97;101517.56;10267827;28;20069;-61
2024/01/25 03:52:46;;;;;;;21.65;2.78;;;;;;;10.33;60.77;101530.72;10268971;28;20042;-61
2024/01/25 03:57:48;;;;;;;18.98;1.42;;;;;;;10.37;60.99;101524.06;10268496;28;20043;-60
2024/01/25 04:02:49;;;;;;;16.60;2.08;;;;;;;10.43;60.65;101525.31;10264687;28;20074;-60
2024/01/25 04:07:51;;;;;;;15.70;1.48;;;;;;;10.32;60.70;101515.59;10264298;28;20073;-61
2024/01/25 04:12:52;;;;;;;15.80;2.63;;;;;;;10.20;61.09;101520.25;10262794;28;20138;-60
2024/01/25 04:17:56;;;;;;;15.57;1.45;;;;;;;10.22;61.39;101529.00;10268832;28;20066;-61
2024/01/25 04:22:58;;;;;;;24.13;3.72;;;;;;;10.21;61.32;101539.88;10260179;28;20051;-60
2024/01/25 04:28:00;;;;;;;11.50;1.77;;;;;;;10.24;61.42;101547.69;10264609;28;20098;-60
2024/01/25 04:33:02;;;;;;;19.88;3.42;;;;;;;10.11;61.39;101553.34;10268754;28;20126;-61
2024/01/25 04:38:03;;;;;;;16.30;1.60;;;;;;;9.99;61.95;101543.75;10267084;28;20398;-61
2024/01/25 04:43:05;;;;;;;33.25;3.08;;;;;;;9.89;61.86;101546.44;10265378;28;20122;-61
2024/01/25 04:48:07;;;;;;;27.13;2.53;;;;;;;9.82;61.93;101545.31;10264626;28;20058;-61
2024/01/25 04:53:09;;;;;;;20.67;2.10;;;;;;;9.80;62.05;101560.72;10263613;28;20914;-61
2024/01/25 04:58:11;;;;;;;15.70;2.05;;;;;;;9.91;61.65;101574.00;10265160;28;20053;-61
2024/01/25 05:03:12;;;;;;;18.67;2.17;;;;;;;9.98;61.42;101574.28;10267308;28;20510;-61
2024/01/25 05:08:14;;;;;;;21.75;3.25;;;;;;;10.16;60.97;101588.69;10267764;28;20042;-61
2024/01/25 05:13:16;;;;;;;23.52;1.98;;;;;;;10.26;60.88;101600.28;10273705;28;20070;-62
2024/01/25 05:18:17;;;;;;;25.80;3.58;;;;;;;10.17;61.34;101597.59;10273782;28;20538;-62
2024/01/25 05:23:19;;;;;;;21.40;3.13;;;;;;;10.06;61.47;101603.97;10264742;28;20046;-61
2024/01/25 05:28:20;;;;;;;23.25;2.50;;;;;;;10.03;61.80;101599.75;10269168;28;21353;-61
2024/01/25 05:33:22;;;;;;;16.90;2.92;;;;;;;9.99;61.72;101589.41;10265822;28;20039;-61
2024/01/25 05:38:23;;;;;;;22.10;2.85;;;;;;;9.91;62.03;101598.16;10263712;28;20043;-60
2024/01/25 05:43:25;;;;;;;20.13;2.72;;;;;;;9.87;62.16;101602.13;10267097;28;20069;-62
2024/01/25 05:48:27;;;;;;;16.27;2.17;;;;;;;9.82;62.06;101618.66;10263892;28;20039;-61
2024/01/25 05:53:28;;;;;;;23.25;3.55;;;;;;;9.84;61.96;101613.16;10260831;28;20467;-61
2024/01/25 05:58:30;;;;;;;18.05;1.88;;;;;;;9.72;62.53;101607.06;10268323;28;20137;-60
2024/01/25 06:03:31;;;;;;;20.63;4.13;;;;;;;9.66;62.14;101607.63;10267066;28;20043;-62
2024/01/25 06:08:34;;;;;;;22.45;3.20;;;;;;;9.70;62.10;101619.78;10271737;28;20438;-63
2024/01/25 06:13:35;;;;;;;19.98;3.65;;;;;;;9.69;61.87;101618.91;10269519;28;20047;-62
2024/01/25 06:18:37;;;;;;;27.98;4.15;;;;;;;9.66;62.20;101626.44;10277487;28;20062;-60
2024/01/25 06:23:39;;;;;;;25.65;3.38;;;;;;;9.68;62.02;101622.59;10272195;28;20054;-59
2024/01/25 06:28:41;;;;;;;15.85;3.85;;;;;;;9.51;62.01;101616.06;10266433;28;20050;-59
2024/01/25 06:33:46;;;;;;;26.73;4.03;;;;;;;9.32;62.61;101606.16;10272999;28;20569;-60
2024/01/25 06:38:48;;;;;;;20.13;3.00;;;;;;;9.18;62.96;101602.97;10261169;28;20732;-59
2024/01/25 06:43:49;;;;;;;19.63;4.18;;;;;;;9.15;63.03;101611.31;10266536;28;20103;-59
2024/01/25 06:48:52;;;;;;;28.33;3.17;;;;;;;9.16;62.77;101623.72;10261530;28;20042;-58
2024/01/25 06:53:53;;;;;;;14.43;3.47;;;;;;;9.04;62.82;101634.53;10268723;28;20055;-58
2024/01/25 06:58:55;;;;;;;28.60;3.85;;;;;;;8.88;63.53;101637.72;10273539;28;20136;-58
2024/01/25 07:03:57;;;;;;;18.95;3.80;;;;;;;8.82;63.65;101648.97;10272868;28;20057;-66
2024/01/25 07:08:59;;;;;;;21.65;3.08;;;;;;;8.82;63.47;101648.13;10267839;28;20510;-67
2024/01/25 07:14:00;;;;;;;21.63;3.03;;;;;;;8.80;63.55;101642.03;10264319;28;20054;-66
2024/01/25 07:19:02;;;;;;;12.50;1.92;;;;;;;8.76;63.93;101646.81;10272443;28;20145;-67
2024/01/25 07:24:05;;;;;;;15.50;2.95;;;;;;;8.74;64.09;101660.34;10269431;28;20051;-66
2024/01/25 07:29:06;;;;;;;14.80;3.05;;;;;;;8.87;63.64;101659.31;10269337;28;20058;-66
2024/01/25 07:34:08;;;;;;;19.20;3.58;;;;;;;8.86;63.98;101661.13;10267637;28;20070;-66
2024/01/25 07:39:11;;;;;;;17.90;3.03;;;;;;;9.00;63.68;101659.09;10267284;28;20054;-66
2024/01/25 07:44:13;;;;;;;24.50;3.67;;;;;;;8.93;64.08;101658.78;10261446;28;20448;-65
2024/01/25 07:49:14;;;;;;;17.13;3.92;;;;;;;8.93;63.97;101662.31;10271299;28;20047;-65
2024/01/25 07:54:16;;;;;;;19.58;3.20;;;;;;;9.07;63.83;101682.56;10267635;28;20050;-65
2024/01/25 07:59:18;;;;;;;17.80;3.42;;;;;;;9.17;63.60;101690.66;10266584;28;20059;-65
2024/01/25 08:04:19;;;;;;;26.05;2.75;;;;;;;9.25;63.69;101696.19;10266150;28;20158;-65
2024/01/25 08:09:21;;;;;;;21.73;4.38;;;;;;;9.17;63.64;101693.34;10263744;28;20556;-65
2024/01/25 08:14:22;;;;;;;24.73;3.33;;;;;;;9.13;63.81;101692.75;10258946;28;20140;-65
2024/01/25 08:19:24;;;;;;;22.80;3.60;;;;;;;9.21;63.60;101702.81;10263631;28;20106;-65
2024/01/25 08:24:25;;;;;;;17.50;2.85;;;;;;;9.28;63.63;101706.69;10264819;28;20058;-65
2024/01/25 08:29:27;;;;;;;25.90;3.45;;;;;;;9.43;63.25;101690.22;10264283;28;20051;-65
2024/01/25 08:34:28;;;;;;;18.02;3.67;;;;;;;9.46;63.75;101677.38;10259359;28;20497;-65
2024/01/25 08:39:30;;;;;;;23.42;3.80;;;;;;;9.44;63.97;101681.16;10267376;28;20073;-65
2024/01/25 08:44:32;;;;;;;28.05;3.50;;;;;;;9.61;63.78;101688.56;10266813;28;20058;-66
2024/01/25 08:49:38;;;;;;;34.45;5.05;;;;;;;9.83;63.44;101698.22;10266706;28;20631;-65
2024/01/25 08:54:40;;;;;;;17.02;1.85;;;;;;;9.97;63.44;101704.22;10262150;28;20494;-65
2024/01/25 08:59:42;;;;;;;12.48;3.25;;;;;;;10.16;63.22;101701.56;10265240;28;20049;-65
2024/01/25 09:04:43;;;;;;;22.52;2.78;;;;;;;10.34;63.50;101695.53;10264104;28;20134;-66
2024/01/25 09:09:45;;;;;;;16.75;2.90;;;;;;;10.36;63.17;101691.69;10268101;28;20659;-66
2024/01/25 09:14:46;;;;;;;20.90;3.20;;;;;;;10.19;63.38;101701.28;10266408;28;20058;-65
2024/01/25 09:19:49;;;;;;;15.55;2.42;;;;;;;10.30;63.45;101708.38;10263755;28;20122;-65
2024/01/25 09:24:51;;;;;;;14.13;2.58;;;;;;;10.46;63.28;101714.03;10261075;28;20059;-65
2024/01/25 09:29:53;;;;;;;21.33;2.92;;;;;;;10.52;62.77;101705.44;10269326;28;20054;-66
2024/01/25 09:34:54;;;;;;;23.00;2.67;;;;;;;10.75;62.57;101713.19;10264675;28;20134;-65
2024/01/25 09:39:58;;;;;;;16.63;2.20;;;;;;;10.83;62.53;101709.78;10265832;28;20062;-65
2024/01/25 09:45:01;;;;;;;25.15;3.60;;;;;;;11.04;61.59;101723.06;10268506;28;20055;-65
2024/01/25 09:50:04;;;;;;;19.38;3.20;;;;;;;11.19;61.34;101721.59;10271555;28;20577;-65
2024/01/25 09:55:07;;;;;;;20.80;3.45;;;;;;;11.23;61.07;101724.84;10269202;28;20407;-65
2024/01/25 10:00:11;;;;;;;24.05;3.30;;;;;;;11.36;61.36;101724.53;10268182;28;20070;-63
2024/01/25 10:05:13;;;;;;;21.63;3.33;;;;;;;11.36;61.09;101740.69;10270968;28;20068;-62
2024/01/25 10:10:14;;;;;;;21.45;2.85;;;;;;;11.54;60.48;101736.22;10269866;28;20054;-63
2024/01/25 10:15:16;;;;;;;17.25;2.65;;;;;;;11.64;59.76;101734.31;10272533;28;20049;-62
2024/01/25 10:20:18;;;;;;;19.15;2.45;;;;;;;11.62;60.04;101724.69;10268119;28;20043;-62
2024/01/25 10:25:21;;;;;;;22.58;3.10;;;;;;;11.77;59.79;101727.72;10270036;28;20061;-65
2024/01/25 10:30:23;;;;;;;17.58;2.78;;;;;;;11.87;59.13;101715.06;10273437;28;20142;-63
2024/01/25 10:35:26;;;;;;;20.13;2.85;;;;;;;12.12;58.47;101718.06;10270778;28;20051;-65
2024/01/25 10:40:29;;;;;;;19.80;2.10;;;;;;;12.34;58.00;101731.06;10273089;28;20051;-62
2024/01/25 10:45:31;;;;;;;29.58;4.00;;;;;;;12.07;58.61;101716.66;10272743;28;20505;-64
2024/01/25 10:50:33;;;;;;;17.15;2.78;;;;;;;12.23;58.40;101729.47;10267781;28;20051;-65
2024/01/25 10:55:35;;;;;;;18.80;2.50;;;;;;;12.24;58.34;101741.97;10268710;28;20050;-64
2024/01/25 11:00:37;;;;;;;25.50;2.50;;;;;;;12.42;57.68;101741.09;10269966;28;20055;-64
2024/01/25 11:05:39;;;;;;;23.83;3.05;;;;;;;12.64;57.12;101740.66;10268717;28;20053;-63
2024/01/25 11:10:40;;;;;;;21.77;2.58;;;;;;;12.70;56.96;101728.41;10268900;28;20056;-62
2024/01/25 11:15:42;;;;;;;16.42;1.90;;;;;;;12.68;56.97;101698.03;10269089;28;20050;-64
2024/01/25 11:20:47;;;;;;;27.35;2.22;;;;;;;12.80;56.43;101722.91;10271818;28;20047;-64
2024/01/25 11:25:48;;;;;;;20.15;2.90;;;;;;;12.93;56.07;101719.78;10279746;28;20062;-62
2024/01/25 11:30:50;;;;;;;23.60;1.52;;;;;;;12.97;56.24;101722.00;10283021;28;20035;-62
2024/01/25 11:35:55;;;;;;;22.30;3.25;;;;;;;12.99;56.01;101720.00;10270812;28;20047;-62
2024/01/25 11:40:58;;;;;;;23.25;3.13;;;;;;;12.74;56.34;101713.59;10270176;28;20110;-64
2024/01/25 11:45:59;;;;;;;14.10;1.80;;;;;;;12.92;55.93;101700.06;10265780;28;20047;-62
2024/01/25 11:51:00;;;;;;;22.42;2.10;;;;;;;12.94;55.64;101679.16;10262580;28;20055;-65
2024/01/25 11:56:08;;;;;;;16.83;2.38;;;;;;;13.02;55.34;101683.75;10273663;28;20463;-62
2024/01/25 12:01:11;;;;;;;16.95;2.13;;;;;;;13.03;55.35;101686.31;10269789;28;20042;-62
2024/01/25 12:06:12;;;;;;;16.48;1.85;;;;;;;13.07;55.64;101673.31;10278851;28;20051;-63
2024/01/25 12:11:14;;;;;;;18.67;2.05;;;;;;;13.38;54.90;101662.03;10272356;28;20051;-64
2024/01/25 12:16:16;;;;;;;18.55;2.47;;;;;;;13.05;55.29;101657.28;10280806;28;20125;-65
2024/01/25 12:21:18;;;;;;;21.48;1.67;;;;;;;13.06;54.89;101650.03;10278011;28;20046;-65
2024/01/25 12:26:19;;;;;;;21.48;2.45;;;;;;;13.22;54.34;101654.69;10273895;28;20490;-64
2024/01/25 12:31:21;;;;;;;22.15;3.28;;;;;;;13.45;53.45;101649.59;10279026;28;20434;-65
2024/01/25 12:36:22;;;;;;;15.57;1.85;;;;;;;13.42;53.82;101639.94;10272237;28;20545;-65
2024/01/25 12:41:24;;;;;;;15.30;2.53;;;;;;;13.34;53.66;101637.19;10274227;28;20054;-65
2024/01/25 12:46:26;;;;;;;18.20;2.35;;;;;;;13.49;53.28;101637.44;10269615;28;20043;-65
2024/01/25 12:51:30;;;;;;;14.15;2.97;;;;;;;13.74;52.69;101624.00;10271026;28;20175;-66
2024/01/25 12:56:32;;;;;;;14.30;2.40;;;;;;;13.98;52.40;101621.34;10274326;28;20047;-66
2024/01/25 13:01:34;;;;;;;20.95;2.30;;;;;;;14.13;52.13;101596.34;10268168;28;20046;-66
2024/01/25 13:06:37;;;;;;;20.70;4.78;;;;;;;14.28;51.92;101590.09;10272279;28;20117;-66
2024/01/25 13:11:38;;;;;;;20.10;3.45;;;;;;;14.24;51.79;101585.19;10271826;28;20039;-67
2024/01/25 13:16:40;;;;;;;17.25;2.25;;;;;;;14.10;51.63;101608.34;10280749;28;20043;-64
2024/01/25 13:21:42;;;;;;;13.00;2.08;;;;;;;13.96;51.56;101595.47;10274259;28;20098;-66
2024/01/25 13:26:44;;;;;;;15.48;2.38;;;;;;;13.81;51.26;101584.50;10272112;28;20051;-67
2024/01/25 13:31:46;;;;;;;19.52;2.58;;;;;;;13.69;51.51;101581.25;10271665;28;20043;-67
2024/01/25 13:36:47;;;;;;;16.65;1.67;;;;;;;13.66;51.49;101573.47;10267158;28;20045;-66
2024/01/25 13:41:50;;;;;;;15.90;1.92;;;;;;;13.55;51.52;101563.84;10274499;28;20050;-66
2024/01/25 13:46:51;;;;;;;13.90;1.80;;;;;;;13.74;51.31;101575.34;10267465;28;20077;-66
2024/01/25 13:51:53;;;;;;;17.98;1.90;;;;;;;13.67;51.37;101567.91;10268756;28;20043;-67
2024/01/25 13:56:55;;;;;;;18.30;1.80;;;;;;;13.89;50.95;101546.66;10273077;28;20053;-65
2024/01/25 14:01:57;;;;;;;14.38;2.00;;;;;;;13.85;51.11;101535.31;10268448;28;20047;-66
2024/01/25 14:07:00;;;;;;;25.02;2.78;;;;;;;13.88;51.13;101553.94;10274376;28;22232;-67
2024/01/25 14:12:03;;;;;;;10.98;1.92;;;;;;;13.81;50.97;101554.75;10265610;28;20072;-66
2024/01/25 14:17:05;;;;;;;14.35;1.80;;;;;;;13.93;51.02;101545.31;10275500;28;20042;-66
2024/01/25 14:22:10;;;;;;;14.02;1.95;;;;;;;13.82;51.01;101559.13;10261583;28;20047;-66
2024/01/25 14:27:30;;;;;;;16.98;2.15;;;;;;;13.71;51.29;101533.28;10274111;28;20050;-64
2024/01/25 14:32:31;;;;;;;13.52;2.80;;;;;;;13.64;51.13;101537.66;10269504;28;20054;-63
2024/01/25 14:37:33;;;;;;;14.63;1.92;;;;;;;13.52;51.32;101537.16;10271083;28;20043;-65
2024/01/25 14:42:35;;;;;;;17.55;1.40;;;;;;;13.61;50.98;101536.16;10267626;28;20043;-66
2024/01/25 14:47:36;;;;;;;20.00;2.33;;;;;;;13.71;50.77;101562.19;10267903;28;20062;-65
2024/01/25 14:52:38;;;;;;;25.88;2.50;;;;;;;13.41;50.95;101562.63;10261648;28;20146;-66
2024/01/25 14:57:39;;;;;;;12.30;1.63;;;;;;;13.25;51.04;101549.88;10272453;28;20046;-64
2024/01/25 15:02:41;;;;;;;14.80;1.60;;;;;;;13.23;51.08;101540.25;10266128;28;20050;-65
2024/01/25 15:07:42;;;;;;;15.43;1.73;;;;;;;13.31;50.45;101537.63;10267597;28;20226;-64
2024/01/25 15:12:44;;;;;;;21.42;2.13;;;;;;;13.09;50.93;101544.41;10266844;28;20130;-64
2024/01/25 15:17:45;;;;;;;13.88;1.92;;;;;;;13.04;50.97;101527.88;10268491;28;20061;-64
2024/01/25 15:22:47;;;;;;;17.55;1.98;;;;;;;12.85;51.50;101513.63;10265226;28;20047;-65
2024/01/25 15:27:48;;;;;;;9.48;1.80;;;;;;;12.79;51.22;101508.03;10266117;28;20047;-64
2024/01/25 15:32:50;;;;;;;15.93;1.30;;;;;;;12.67;51.40;101520.97;10264539;28;20906;-63
2024/01/25 15:37:52;;;;;;;12.77;1.90;;;;;;;12.57;51.71;101515.69;10268974;28;20054;-65
2024/01/25 15:42:55;;;;;;;19.73;2.22;;;;;;;12.46;52.37;101526.72;10269444;28;20051;-66
2024/01/25 15:47:57;;;;;;;16.70;2.55;;;;;;;12.32;52.50;101522.78;10266473;28;20055;-66
2024/01/25 15:52:58;;;;;;;16.73;1.92;;;;;;;12.25;52.63;101525.25;10261830;28;20085;-66
2024/01/25 15:58:00;;;;;;;16.30;1.48;;;;;;;12.11;52.70;101525.84;10268313;28;20051;-66
2024/01/25 16:03:01;;;;;;;27.73;2.33;;;;;;;12.07;53.26;101519.06;10266223;28;20058;-66
2024/01/25 16:08:03;;;;;;;13.32;1.83;;;;;;;12.03;53.02;101517.69;10268164;28;20058;-66
2024/01/25 16:13:04;;;;;;;20.73;2.80;;;;;;;11.82;53.35;101512.59;10267143;28;20054;-66
2024/01/25 16:18:06;;;;;;;23.98;3.47;;;;;;;11.71;54.04;101506.47;10264179;28;20689;-64
2024/01/25 16:23:07;;;;;;;19.50;3.50;;;;;;;11.75;53.70;101493.53;10266326;28;20145;-66
2024/01/25 16:28:09;;;;;;;20.17;3.53;;;;;;;11.75;54.36;101481.88;10262087;28;20158;-58
2024/01/25 16:33:10;;;;;;;19.13;4.25;;;;;;;11.74;54.27;101486.44;10266812;28;20054;-58
2024/01/25 16:38:12;;;;;;;21.42;4.55;;;;;;;11.70;54.89;101485.06;10266635;28;20063;-58
2024/01/25 16:43:15;;;;;;;26.55;5.03;;;;;;;11.64;54.83;101486.53;10262102;28;20712;-59
2024/01/25 16:48:16;;;;;;;12.82;3.95;;;;;;;11.61;55.05;101494.06;10266764;28;20042;-59
2024/01/25 16:53:23;;;;;;;21.67;4.93;;;;;;;11.56;55.46;101480.22;10263214;28;20051;-59
2024/01/25 16:58:25;;;;;;;21.70;6.40;;;;;;;11.54;55.39;101483.06;10261132;28;20476;-59
2024/01/25 17:03:28;;;;;;;27.88;6.07;;;;;;;11.50;55.46;101487.91;10256450;28;20050;-58
2024/01/25 17:08:30;;;;;;;20.85;6.82;;;;;;;11.43;56.01;101491.38;10263185;28;20038;-58
2024/01/25 17:13:33;;;;;;;22.88;4.78;;;;;;;11.29;56.47;101490.94;10261052;28;20133;-59
2024/01/25 17:18:36;;;;;;;23.63;4.28;;;;;;;11.27;56.20;101489.38;10261185;28;20058;-58
2024/01/25 17:23:37;;;;;;;23.33;3.97;;;;;;;11.11;56.92;101479.28;10265746;28;20853;-58
2024/01/25 17:28:39;;;;;;;14.52;4.90;;;;;;;11.05;57.16;101483.41;10259452;28;20050;-58
2024/01/25 17:33:40;;;;;;;23.67;6.60;;;;;;;10.96;56.99;101481.66;10261619;28;20618;-59
2024/01/25 17:38:45;;;;;;;22.60;6.13;;;;;;;10.91;57.22;101468.63;10264333;28;20055;-59
2024/01/25 17:43:46;;;;;;;19.75;5.53;;;;;;;10.85;57.66;101469.22;10263374;28;20052;-59
2024/01/25 17:48:48;;;;;;;21.90;5.25;;;;;;;10.84;57.36;101467.56;10265243;28;20126;-60
2024/01/25 17:53:49;;;;;;;25.80;6.22;;;;;;;10.86;57.61;101462.88;10267127;28;20042;-59
2024/01/25 17:58:51;;;;;;;21.08;5.50;;;;;;;10.87;57.78;101456.47;10268720;28;20074;-59
2024/01/25 18:03:52;;;;;;;21.45;5.45;;;;;;;10.86;58.01;101454.78;10270569;28;20051;-59
2024/01/25 18:08:54;;;;;;;18.15;6.00;;;;;;;10.88;58.15;101443.88;10268799;28;20055;-58
2024/01/25 18:13:56;;;;;;;22.17;4.53;;;;;;;10.87;58.36;101445.72;10267981;28;20454;-58
2024/01/25 18:18:57;;;;;;;20.48;4.18;;;;;;;10.83;58.32;101449.72;10268968;28;20093;-58
2024/01/25 18:24:01;;;;;;;20.27;5.18;;;;;;;10.85;58.57;101447.72;10267183;28;20130;-58
2024/01/25 18:29:02;;;;;;;19.75;4.75;;;;;;;10.89;58.11;101445.56;10270044;28;20053;-59
2024/01/25 18:34:06;;;;;;;24.60;4.72;;;;;;;10.88;58.36;101446.56;10269832;28;20522;-60
2024/01/25 18:39:08;;;;;;;19.60;4.13;;;;;;;10.87;58.75;101440.34;10267656;28;20051;-58
2024/01/25 18:44:10;;;;;;;30.77;5.03;;;;;;;10.86;58.80;101438.66;10267017;28;20039;-59
2024/01/25 18:49:11;;;;;;;31.08;7.40;;;;;;;10.82;59.28;101429.19;10273416;28;20122;-59
2024/01/25 18:54:13;;;;;;;20.92;6.82;;;;;;;10.76;59.68;101439.69;10268853;28;20054;-58
2024/01/25 18:59:15;;;;;;;37.97;10.90;;;;;;;10.74;59.69;101429.09;10267579;28;20067;-58
2024/01/25 19:04:18;;;;;;;33.75;7.75;;;;;;;10.67;60.21;101436.91;10264330;28;21064;-58
2024/01/25 19:09:24;;;;;;;16.65;5.60;;;;;;;10.62;60.99;101438.34;10269771;28;20082;-58
2024/01/25 19:14:26;;;;;;;36.97;7.93;;;;;;;10.62;61.02;101441.03;10269737;28;20042;-58
2024/01/25 19:19:27;;;;;;;26.00;6.63;;;;;;;10.64;60.99;101425.59;10272185;28;20053;-58
2024/01/25 19:24:29;;;;;;;24.83;7.38;;;;;;;10.64;61.45;101415.72;10269389;28;20055;-58
2024/01/25 19:29:31;;;;;;;29.30;6.57;;;;;;;10.65;61.54;101412.03;10266704;28;20043;-58
2024/01/25 19:34:32;;;;;;;23.85;6.05;;;;;;;10.59;61.67;101419.84;10277698;28;20035;-58
2024/01/25 19:39:34;;;;;;;15.25;4.13;;;;;;;10.49;62.36;101428.81;10264868;28;20058;-58
2024/01/25 19:44:36;;;;;;;30.55;3.22;;;;;;;10.52;62.48;101433.03;10270496;28;20558;-58
2024/01/25 19:49:37;;;;;;;19.83;2.85;;;;;;;10.51;63.08;101442.94;10269401;28;20043;-58
2024/01/25 19:54:41;;;;;;;20.17;3.15;;;;;;;10.50;63.42;101460.09;10264642;28;20047;-58
2024/01/25 19:59:43;;;;;;;23.48;4.07;;;;;;;10.50;64.29;101435.88;10273398;28;20059;-57
2024/01/25 20:04:46;;;;;;;31.27;4.93;;;;;;;10.55;64.08;101434.59;10261136;28;20050;-58
2024/01/25 20:09:48;;;;;;;17.98;3.83;;;;;;;10.50;64.49;101435.88;10273205;28;20090;-57
2024/01/25 20:14:51;;;;;;;19.73;3.72;;;;;;;10.37;65.45;101440.75;10274083;28;20434;-58
2024/01/25 20:19:53;;;;;;;18.05;2.80;;;;;;;10.24;65.85;101442.88;10273973;28;20514;-58
2024/01/25 20:24:55;;;;;;;15.30;3.58;;;;;;;10.34;66.13;101432.97;10272638;28;20050;-58
2024/01/25 20:29:57;;;;;;;21.98;3.30;;;;;;;10.26;66.37;101432.81;10273899;28;20062;-58
2024/01/25 20:34:58;;;;;;;18.90;3.60;;;;;;;10.26;66.67;101428.28;10273922;28;20153;-57
2024/01/25 20:40:00;;;;;;;21.48;3.60;;;;;;;10.17;67.26;101429.19;10267634;28;20149;-60
2024/01/25 20:45:03;;;;;;;23.30;5.03;;;;;;;10.17;67.43;101417.56;10268992;28;20047;-58
2024/01/25 20:50:05;;;;;;;18.90;4.32;;;;;;;10.16;67.58;101411.38;10268474;28;20077;-58
2024/01/25 20:55:07;;;;;;;25.90;3.83;;;;;;;10.17;68.16;101386.22;10267343;28;20043;-58
2024/01/25 21:00:10;;;;;;;22.77;4.82;;;;;;;10.10;68.58;101394.00;10265981;28;20043;-57
2024/01/25 21:05:12;;;;;;;25.77;4.38;;;;;;;10.12;69.13;101409.97;10281974;28;20054;-58
2024/01/25 21:10:16;;;;;;;35.10;4.50;;;;;;;10.20;68.96;101403.88;10262171;28;20627;-58
2024/01/25 21:15:18;;;;;;;22.35;4.97;;;;;;;10.13;69.30;101400.94;10264088;28;20067;-59
2024/01/25 21:20:19;;;;;;;23.15;5.15;;;;;;;10.13;69.80;101391.03;10267276;28;20133;-58
2024/01/25 21:25:21;;;;;;;30.80;5.85;;;;;;;10.13;70.15;101393.72;10267303;28;20097;-59
2024/01/25 21:30:22;;;;;;;20.83;5.07;;;;;;;10.16;70.38;101370.22;10264455;28;20053;-58
2024/01/25 21:35:24;;;;;;;23.80;6.05;;;;;;;10.19;70.36;101383.34;10278652;28;20077;-57
2024/01/25 21:40:25;;;;;;;30.00;6.38;;;;;;;10.28;70.08;101388.69;10279302;28;20130;-58
2024/01/25 21:45:27;;;;;;;27.90;6.22;;;;;;;10.35;70.42;101383.59;10266084;28;20411;-57
2024/01/25 21:50:29;;;;;;;24.02;5.60;;;;;;;10.47;69.91;101386.94;10268158;28;20046;-58
2024/01/25 21:55:33;;;;;;;20.75;4.70;;;;;;;10.46;70.38;101385.25;10267015;28;20055;-58
2024/01/25 22:00:35;;;;;;;25.27;6.93;;;;;;;10.42;70.45;101392.75;10270708;28;20127;-58
2024/01/25 22:05:36;;;;;;;23.65;5.55;;;;;;;10.56;70.38;101393.25;10271316;28;20463;-57
2024/01/25 22:10:38;;;;;;;22.40;5.32;;;;;;;10.47;70.82;101393.16;10269901;28;20075;-58
2024/01/25 22:15:40;;;;;;;18.13;6.03;;;;;;;10.46;70.62;101393.31;10270958;28;20990;-58
2024/01/25 22:20:41;;;;;;;21.17;5.85;;;;;;;10.40;71.06;101393.91;10281377;28;20421;-58
2024/01/25 22:25:43;;;;;;;24.20;4.90;;;;;;;10.39;71.40;101393.06;10271239;28;20137;-57
2024/01/25 22:30:44;;;;;;;26.45;5.95;;;;;;;10.44;71.33;101387.22;10266949;28;21167;-57
2024/01/25 22:35:46;;;;;;;33.80;6.55;;;;;;;10.32;71.51;101387.41;10272624;28;20057;-58
2024/01/25 22:40:47;;;;;;;21.33;5.30;;;;;;;10.36;72.05;101374.53;10268415;28;20047;-58
2024/01/25 22:45:50;;;;;;;24.10;6.68;;;;;;;10.39;71.60;101370.72;10267392;28;20067;-58
2024/01/25 22:50:51;;;;;;;29.00;5.93;;;;;;;10.36;71.72;101363.78;10267882;28;20070;-59
2024/01/25 22:55:53;;;;;;;29.70;6.10;;;;;;;10.35;72.08;101367.47;10263811;28;20059;-58